Time;durP1;ratioP1;P1;durP2;ratioP2;P2;SDS_P1;SDS_P2;PMS_P1;PMS_P2;Temp;Humidity;BMP_temperature;BMP_pressure;BME280_temperature;BME280_humidity;BME280_pressure;Samples;Min_cycle;Max_cycle;Signal;HPM_P1;HPM_P2
2021/10/14 00:01:23;;;;;;;9.68;8.70;;;;;;;29.56;17.76;94613.09;5068106;28;20387;-53
2021/10/14 00:03:50;;;;;;;9.45;8.52;;;;;;;29.84;17.57;94618.16;5057210;28;20041;-51
2021/10/14 00:06:17;;;;;;;9.85;8.95;;;;;;;29.81;17.68;94616.25;5062015;28;20052;-51
2021/10/14 00:08:44;;;;;;;10.15;8.80;;;;;;;29.65;17.68;94619.50;5054800;28;20041;-52
2021/10/14 00:11:11;;;;;;;10.25;9.05;;;;;;;29.63;17.87;94615.69;5054767;28;20059;-51
2021/10/14 00:13:38;;;;;;;10.75;8.70;;;;;;;29.72;17.54;94602.53;5072266;28;20044;-50
2021/10/14 00:16:05;;;;;;;9.95;8.95;;;;;;;29.28;18.06;94606.81;5063814;28;20048;-51
2021/10/14 00:18:32;;;;;;;9.20;8.30;;;;;;;29.51;18.14;94605.44;5054614;28;20057;-52
2021/10/14 00:20:59;;;;;;;9.65;8.75;;;;;;;29.37;18.27;94607.09;5053778;28;20053;-51
2021/10/14 00:23:27;;;;;;;10.32;9.35;;;;;;;29.17;18.09;94614.22;5070182;28;20055;-52
2021/10/14 00:25:54;;;;;;;10.07;8.60;;;;;;;29.68;17.90;94623.34;5074404;28;20047;-52
2021/10/14 00:28:21;;;;;;;9.63;8.63;;;;;;;29.61;17.97;94615.34;5074602;28;20048;-52
2021/10/14 00:30:48;;;;;;;9.93;8.82;;;;;;;29.47;18.14;94618.97;5074100;28;20703;-50
2021/10/14 00:33:15;;;;;;;9.85;8.65;;;;;;;29.23;18.19;94615.31;5059963;28;20048;-53
2021/10/14 00:35:42;;;;;;;10.00;9.00;;;;;;;29.51;18.06;94614.28;5054067;28;20053;-52
2021/10/14 00:38:09;;;;;;;8.93;8.20;;;;;;;29.30;18.19;94606.41;5054334;28;20048;-50
2021/10/14 00:40:37;;;;;;;11.55;9.20;;;;;;;29.57;17.87;94603.84;5054317;28;20359;-54
2021/10/14 00:43:05;;;;;;;9.43;8.50;;;;;;;29.20;18.21;94609.97;5053655;28;20363;-50
2021/10/14 00:45:32;;;;;;;9.32;8.43;;;;;;;29.67;17.73;94602.97;5053923;28;20435;-51
2021/10/14 00:47:59;;;;;;;11.77;8.80;;;;;;;29.42;18.04;94598.59;5054200;28;20045;-53
2021/10/14 00:50:26;;;;;;;10.73;9.63;;;;;;;29.47;18.04;94602.81;5054050;28;20055;-51
2021/10/14 00:52:54;;;;;;;9.93;9.02;;;;;;;29.40;18.08;94598.22;5056906;28;20052;-55
2021/10/14 00:55:21;;;;;;;10.15;9.05;;;;;;;29.35;18.16;94601.34;5069361;28;20045;-51
2021/10/14 00:57:49;;;;;;;9.77;8.88;;;;;;;29.38;18.05;94603.22;5054015;28;20055;-53
2021/10/14 01:00:17;;;;;;;9.68;8.73;;;;;;;29.44;18.04;94609.75;5058148;28;20052;-52
2021/10/14 01:02:45;;;;;;;10.65;8.38;;;;;;;29.31;18.21;94606.00;5064579;28;20483;-51
2021/10/14 01:05:12;;;;;;;9.15;8.27;;;;;;;29.37;18.42;94604.41;5055487;28;20352;-52
2021/10/14 01:07:40;;;;;;;12.55;9.50;;;;;;;29.10;18.45;94617.72;5061555;28;20045;-53
2021/10/14 01:10:07;;;;;;;10.52;8.93;;;;;;;28.94;18.42;94603.28;5043181;28;20063;-54
2021/10/14 01:12:35;;;;;;;10.93;9.43;;;;;;;29.10;18.48;94611.59;5067956;28;20055;-53
2021/10/14 01:15:24;;;;;;;9.80;8.82;;;;;;;29.28;18.27;94622.97;5062231;28;20048;-51
2021/10/14 01:17:51;;;;;;;9.23;8.43;;;;;;;28.95;18.49;94623.66;5060368;28;20471;-57
2021/10/14 01:20:18;;;;;;;9.57;8.57;;;;;;;29.00;18.59;94623.97;5060599;28;20061;-52
2021/10/14 01:22:45;;;;;;;9.88;8.98;;;;;;;28.73;18.67;94615.72;5068484;28;20045;-52
2021/10/14 01:25:13;;;;;;;9.57;8.35;;;;;;;28.88;18.54;94616.38;5080267;28;20044;-54
2021/10/14 01:27:40;;;;;;;9.55;8.60;;;;;;;29.14;18.44;94623.06;5080485;28;20044;-54
2021/10/14 01:30:09;;;;;;;9.02;8.23;;;;;;;28.90;18.55;94614.09;5080179;28;20051;-51
2021/10/14 01:32:37;;;;;;;8.60;7.80;;;;;;;28.78;18.57;94611.84;5072314;28;20045;-54
2021/10/14 01:35:05;;;;;;;8.40;7.60;;;;;;;28.71;18.70;94609.97;5060792;28;20045;-54
2021/10/14 01:37:33;;;;;;;8.52;7.72;;;;;;;28.63;18.64;94608.50;5059682;28;20052;-52
2021/10/14 01:40:01;;;;;;;8.15;7.45;;;;;;;28.46;18.66;94602.06;5059869;28;20055;-51
2021/10/14 01:42:28;;;;;;;8.43;7.63;;;;;;;28.75;18.64;94610.69;5065923;28;20048;-49
2021/10/14 01:44:57;;;;;;;7.93;7.22;;;;;;;28.82;18.94;94613.31;5080590;28;20082;-51
2021/10/14 01:47:24;;;;;;;8.07;7.38;;;;;;;28.67;19.27;94614.63;5061050;28;20047;-51
2021/10/14 01:49:51;;;;;;;8.75;7.85;;;;;;;28.85;18.98;94601.81;5060558;28;20048;-52
2021/10/14 01:52:18;;;;;;;8.40;7.50;;;;;;;28.53;19.33;94612.00;5060114;28;20049;-53
2021/10/14 01:54:45;;;;;;;8.02;7.25;;;;;;;28.76;19.14;94611.47;5079281;28;20469;-52
2021/10/14 01:57:12;;;;;;;8.20;7.25;;;;;;;28.31;19.62;94616.00;5080344;28;20044;-51
2021/10/14 01:59:39;;;;;;;11.75;7.10;;;;;;;28.73;19.28;94621.09;5079815;28;20040;-51
2021/10/14 02:02:06;;;;;;;7.60;6.90;;;;;;;28.94;19.03;94622.13;5077839;28;20040;-52
2021/10/14 02:04:33;;;;;;;7.97;7.10;;;;;;;28.85;19.15;94617.94;5059994;28;20040;-53
2021/10/14 02:07:00;;;;;;;7.40;6.75;;;;;;;28.78;18.96;94623.34;5059996;28;20049;-52
2021/10/14 02:09:27;;;;;;;7.20;6.53;;;;;;;28.70;19.52;94621.88;5059808;28;20061;-51
2021/10/14 02:11:54;;;;;;;7.50;6.80;;;;;;;28.70;19.26;94626.50;5059864;28;20067;-53
2021/10/14 02:14:22;;;;;;;7.60;6.85;;;;;;;28.54;19.32;94621.59;5079890;28;20048;-52
2021/10/14 02:16:49;;;;;;;7.47;6.78;;;;;;;28.76;19.18;94622.22;5065675;28;20328;-52
2021/10/14 02:19:16;;;;;;;7.70;6.97;;;;;;;28.52;19.50;94621.25;5057643;28;20053;-52
2021/10/14 02:21:43;;;;;;;9.63;6.80;;;;;;;28.59;19.44;94631.94;5056784;28;20056;-54
2021/10/14 02:24:10;;;;;;;7.88;6.57;;;;;;;28.66;19.35;94637.28;5074802;28;20045;-51
2021/10/14 02:26:37;;;;;;;7.43;6.72;;;;;;;28.40;19.79;94645.91;5065454;28;20056;-52
2021/10/14 02:29:05;;;;;;;7.22;6.63;;;;;;;28.43;19.72;94637.81;5056702;28;20056;-54
2021/10/14 02:31:32;;;;;;;8.75;7.30;;;;;;;28.53;19.89;94638.91;5070136;28;20048;-51
2021/10/14 02:33:59;;;;;;;9.10;6.65;;;;;;;28.50;19.38;94639.69;5059727;28;20049;-52
2021/10/14 02:36:26;;;;;;;7.60;6.90;;;;;;;28.36;19.73;94639.75;5056309;28;20045;-53
2021/10/14 02:38:53;;;;;;;7.50;6.75;;;;;;;28.42;19.61;94643.59;5056456;28;20056;-55
2021/10/14 02:41:20;;;;;;;7.68;6.90;;;;;;;28.56;19.55;94643.50;5056649;28;20387;-50
2021/10/14 02:43:47;;;;;;;7.25;6.25;;;;;;;28.65;19.87;94646.53;5070118;28;20056;-51
2021/10/14 02:46:14;;;;;;;8.70;6.28;;;;;;;28.68;19.48;94655.72;5069281;28;20045;-51
2021/10/14 02:48:41;;;;;;;7.28;6.68;;;;;;;28.46;19.66;94649.72;5056231;28;20040;-53
2021/10/14 02:51:08;;;;;;;7.57;6.25;;;;;;;28.18;20.14;94656.75;5056329;28;20369;-54
2021/10/14 02:53:35;;;;;;;7.13;6.43;;;;;;;28.48;19.62;94663.53;5065624;28;20051;-52
2021/10/14 02:56:02;;;;;;;6.78;6.18;;;;;;;28.44;19.80;94658.16;5075819;28;20055;-51
2021/10/14 02:58:29;;;;;;;9.88;6.60;;;;;;;28.41;19.96;94655.50;5068765;28;20051;-53
2021/10/14 03:00:57;;;;;;;6.50;5.82;;;;;;;28.45;20.04;94654.31;5058936;28;20056;-51
2021/10/14 03:03:24;;;;;;;7.13;6.40;;;;;;;28.53;20.01;94661.19;5055614;28;20045;-54
2021/10/14 03:05:51;;;;;;;6.85;6.25;;;;;;;28.51;19.79;94663.50;5056123;28;20503;-52
2021/10/14 03:08:18;;;;;;;8.55;6.43;;;;;;;28.47;20.03;94667.38;5055641;28;20045;-51
2021/10/14 03:10:45;;;;;;;6.43;5.82;;;;;;;28.53;19.63;94660.41;5054715;28;20049;-52
2021/10/14 03:13:12;;;;;;;7.82;5.88;;;;;;;28.70;19.80;94670.31;5055421;28;20487;-52
2021/10/14 03:15:39;;;;;;;6.82;6.22;;;;;;;28.14;20.42;94669.44;5055483;28;20057;-49
2021/10/14 03:18:06;;;;;;;6.38;5.78;;;;;;;28.27;20.43;94669.00;5055655;28;20049;-50
2021/10/14 03:20:33;;;;;;;6.32;5.72;;;;;;;28.51;20.00;94663.50;5059997;28;20497;-54
2021/10/14 03:23:01;;;;;;;6.32;5.72;;;;;;;28.36;20.30;94662.03;5075058;28;20048;-51
2021/10/14 03:25:28;;;;;;;9.43;6.47;;;;;;;28.65;20.09;94673.41;5075566;28;20052;-51
2021/10/14 03:27:55;;;;;;;6.20;5.60;;;;;;;28.68;19.65;94672.63;5075385;28;20051;-52
2021/10/14 03:30:22;;;;;;;6.72;6.03;;;;;;;28.52;20.00;94675.03;5072204;28;20047;-52
2021/10/14 03:32:49;;;;;;;5.95;5.45;;;;;;;28.63;19.90;94664.97;5052972;28;20493;-52
2021/10/14 03:35:16;;;;;;;6.93;5.72;;;;;;;28.53;20.06;94676.53;5054212;28;20329;-52
2021/10/14 03:37:46;;;;;;;6.55;5.80;;;;;;;28.60;20.08;94681.13;5055100;28;20059;-54
2021/10/14 03:40:14;;;;;;;5.95;5.30;;;;;;;28.37;20.45;94662.81;5055247;28;20056;-54
2021/10/14 03:42:41;;;;;;;6.45;5.85;;;;;;;28.14;20.34;94661.38;5054816;28;20449;-54
2021/10/14 03:45:09;;;;;;;6.20;5.60;;;;;;;28.67;19.67;94665.72;5055137;28;20057;-55
2021/10/14 03:47:36;;;;;;;5.88;5.38;;;;;;;28.52;19.92;94664.25;5054893;28;20045;-52
2021/10/14 03:50:05;;;;;;;6.00;5.50;;;;;;;28.38;20.32;94664.34;5061040;28;20052;-57
2021/10/14 03:52:33;;;;;;;6.38;5.78;;;;;;;28.65;19.76;94670.72;5074224;28;20055;-53
2021/10/14 03:55:00;;;;;;;7.20;5.80;;;;;;;28.41;20.26;94671.63;5064517;28;20116;-54
2021/10/14 03:57:27;;;;;;;6.28;5.60;;;;;;;28.49;20.07;94681.94;5061581;28;20049;-51
2021/10/14 03:59:54;;;;;;;7.18;6.57;;;;;;;28.63;19.79;94680.34;5055985;28;20369;-51
2021/10/14 04:02:21;;;;;;;7.00;6.40;;;;;;;28.59;20.07;94680.34;5074828;28;20040;-52
2021/10/14 04:04:48;;;;;;;6.82;5.90;;;;;;;28.78;19.80;94676.38;5062121;28;20044;-50
2021/10/14 04:07:15;;;;;;;6.00;5.50;;;;;;;29.01;19.91;94684.72;5063778;28;20443;-54
2021/10/14 04:09:42;;;;;;;7.70;7.00;;;;;;;28.20;20.51;94675.94;5061830;28;20048;-53
2021/10/14 04:12:09;;;;;;;8.27;7.15;;;;;;;27.24;22.25;94686.13;5073137;28;20052;-46
2021/10/14 04:14:36;;;;;;;7.60;6.90;;;;;;;27.76;21.83;94673.00;5063127;28;20047;-64
2021/10/14 04:17:03;;;;;;;12.52;7.07;;;;;;;26.86;23.18;94677.66;5058681;28;20052;-47
2021/10/14 04:19:30;;;;;;;8.10;7.07;;;;;;;27.71;21.87;94681.47;5055109;28;20057;-49
2021/10/14 04:21:58;;;;;;;8.27;7.22;;;;;;;29.34;19.89;94675.19;5054700;28;20063;-46
2021/10/14 04:24:27;;;;;;;10.02;6.43;;;;;;;30.56;18.62;94686.19;5054192;28;20367;-45
2021/10/14 04:26:54;;;;;;;7.35;6.07;;;;;;;31.60;18.53;94686.16;5054110;28;20459;-44
2021/10/14 04:29:21;;;;;;;9.18;7.43;;;;;;;31.31;18.33;94684.38;5060891;28;20048;-53
2021/10/14 04:31:49;;;;;;;8.38;7.57;;;;;;;30.69;19.18;94683.72;5074048;28;20052;-52
2021/10/14 04:34:16;;;;;;;8.98;7.57;;;;;;;30.33;19.55;94691.50;5074238;28;20052;-52
2021/10/14 04:36:44;;;;;;;8.57;7.75;;;;;;;30.47;19.56;94685.94;5073926;28;20056;-54
2021/10/14 04:39:11;;;;;;;9.55;8.23;;;;;;;30.25;20.05;94687.38;5074144;28;20447;-53
2021/10/14 04:41:39;;;;;;;9.60;7.70;;;;;;;29.99;20.31;94692.28;5056373;28;20090;-57
2021/10/14 04:44:06;;;;;;;12.95;7.43;;;;;;;29.82;20.75;94693.22;5054120;28;20049;-55
2021/10/14 04:46:33;;;;;;;12.68;7.90;;;;;;;30.54;20.53;94693.94;5061911;28;20047;-53
2021/10/14 04:49:00;;;;;;;10.82;9.27;;;;;;;30.79;20.34;94701.72;5054221;28;20048;-51
2021/10/14 04:51:27;;;;;;;11.50;8.73;;;;;;;30.44;20.34;94705.63;5067248;28;20049;-50
2021/10/14 04:53:54;;;;;;;12.00;8.75;;;;;;;30.92;19.95;94701.91;5056463;28;20063;-51
2021/10/14 04:56:21;;;;;;;10.05;9.02;;;;;;;31.63;19.57;94706.19;5053729;28;20060;-55
2021/10/14 04:58:48;;;;;;;11.88;7.97;;;;;;;30.67;19.34;94708.41;5061601;28;20052;-53
2021/10/14 05:01:15;;;;;;;10.38;8.02;;;;;;;29.88;20.25;94696.25;5060277;28;20052;-50
2021/10/14 05:03:43;;;;;;;7.72;6.90;;;;;;;29.75;20.21;94698.69;5053838;28;20383;-53
2021/10/14 05:06:10;;;;;;;9.15;7.72;;;;;;;29.91;20.64;94696.19;5054213;28;20493;-54
2021/10/14 05:08:37;;;;;;;8.13;7.30;;;;;;;29.87;20.51;94700.88;5053721;28;20399;-51
2021/10/14 05:11:12;;;;;;;8.52;6.80;;;;;;;29.64;20.24;94703.41;5053580;28;20041;-54
2021/10/14 05:13:40;;;;;;;8.20;6.72;;;;;;;29.97;21.17;94705.41;5053592;28;20444;-52
2021/10/14 05:16:07;;;;;;;7.38;6.68;;;;;;;29.95;21.05;94707.72;5053663;28;20353;-53
2021/10/14 05:18:34;;;;;;;7.22;6.28;;;;;;;29.69;21.54;94706.47;5071457;28;20077;-56
2021/10/14 05:21:01;;;;;;;6.38;5.82;;;;;;;29.65;21.35;94710.31;5073554;28;20052;-51
2021/10/14 05:23:29;;;;;;;7.13;6.50;;;;;;;29.72;21.24;94710.28;5073517;28;20045;-50
2021/10/14 05:25:56;;;;;;;23.73;6.03;;;;;;;29.73;21.08;94711.81;5073795;28;20075;-52
2021/10/14 05:28:23;;;;;;;6.60;5.38;;;;;;;30.09;21.20;94712.22;5073403;28;20048;-51
2021/10/14 05:30:50;;;;;;;7.18;5.22;;;;;;;31.57;19.84;94719.41;5061918;28;20789;-55
2021/10/14 05:33:18;;;;;;;6.15;5.25;;;;;;;31.42;20.01;94717.34;5052718;28;20056;-51
2021/10/14 05:35:45;;;;;;;5.72;4.85;;;;;;;31.87;19.28;94721.22;5053284;28;20762;-52
2021/10/14 05:38:12;;;;;;;5.93;5.40;;;;;;;32.32;18.67;94720.78;5067896;28;20455;-55
2021/10/14 05:40:39;;;;;;;5.25;4.78;;;;;;;32.09;18.25;94726.22;5073644;28;20048;-51
2021/10/14 05:43:06;;;;;;;5.32;4.82;;;;;;;32.35;17.75;94722.66;5054661;28;20053;-52
2021/10/14 05:45:33;;;;;;;5.30;4.80;;;;;;;31.95;18.62;94731.88;5054423;28;20040;-50
2021/10/14 05:48:00;;;;;;;4.72;4.22;;;;;;;32.19;17.94;94730.66;5065537;28;20047;-52
2021/10/14 05:50:27;;;;;;;4.38;3.97;;;;;;;32.18;17.79;94723.72;5073586;28;20064;-52
2021/10/14 05:52:54;;;;;;;4.10;3.75;;;;;;;32.38;17.20;94727.22;5068763;28;20048;-51
2021/10/14 05:55:21;;;;;;;4.25;3.85;;;;;;;32.41;17.16;94726.38;5055470;28;20059;-52
2021/10/14 05:57:48;;;;;;;3.60;3.30;;;;;;;32.39;17.21;94731.44;5067556;28;20051;-51
2021/10/14 06:00:16;;;;;;;4.45;3.72;;;;;;;32.57;17.36;94743.84;5077453;28;20047;-53
2021/10/14 06:02:43;;;;;;;3.78;3.47;;;;;;;32.39;17.01;94736.09;5077322;28;20044;-50
2021/10/14 06:05:10;;;;;;;3.60;3.30;;;;;;;32.05;17.60;94752.56;5077278;28;20045;-51
2021/10/14 06:07:37;;;;;;;3.95;3.63;;;;;;;32.22;17.23;94748.75;5075955;28;20055;-50
2021/10/14 06:10:05;;;;;;;3.60;3.30;;;;;;;32.38;16.79;94764.31;5075965;28;20051;-51
2021/10/14 06:12:32;;;;;;;4.00;3.60;;;;;;;31.87;17.56;94763.69;5065949;28;20043;-51
2021/10/14 06:14:59;;;;;;;3.53;3.22;;;;;;;32.11;17.27;94759.03;5076239;28;20040;-51
2021/10/14 06:17:26;;;;;;;4.15;3.55;;;;;;;32.40;16.95;94765.44;5069275;28;20060;-52
2021/10/14 06:19:53;;;;;;;4.07;3.58;;;;;;;32.11;16.97;94772.53;5057200;28;20057;-52
2021/10/14 06:22:20;;;;;;;3.92;3.40;;;;;;;32.15;16.69;94759.72;5056749;28;20057;-50
2021/10/14 06:24:47;;;;;;;3.63;3.33;;;;;;;32.39;16.95;94772.03;5076593;28;20752;-53
2021/10/14 06:27:14;;;;;;;4.53;3.55;;;;;;;32.14;17.07;94775.16;5076594;28;20036;-51
2021/10/14 06:29:41;;;;;;;4.10;3.08;;;;;;;32.12;17.13;94774.06;5076370;28;20059;-53
2021/10/14 06:32:09;;;;;;;3.95;3.55;;;;;;;32.28;16.87;94782.28;5076574;28;20071;-52
2021/10/14 06:34:36;;;;;;;3.70;3.40;;;;;;;32.30;16.45;94779.94;5076815;28;20348;-52
2021/10/14 06:37:03;;;;;;;4.60;3.45;;;;;;;32.21;16.40;94779.69;5076216;28;20127;-52
2021/10/14 06:39:30;;;;;;;4.00;3.67;;;;;;;32.20;16.37;94775.44;5075796;28;20063;-52
2021/10/14 06:42:00;;;;;;;4.82;4.38;;;;;;;32.22;16.48;94794.72;5076484;28;20037;-53
2021/10/14 06:44:28;;;;;;;4.38;3.67;;;;;;;32.40;16.70;94789.00;5076265;28;20395;-52
2021/10/14 06:46:55;;;;;;;3.38;3.08;;;;;;;32.26;16.14;94795.44;5074745;28;20383;-52
2021/10/14 06:49:22;;;;;;;4.60;3.50;;;;;;;32.06;16.15;94794.66;5056299;28;20068;-50
2021/10/14 06:51:49;;;;;;;3.20;2.90;;;;;;;32.22;16.22;94792.03;5056315;28;20045;-50
2021/10/14 06:54:16;;;;;;;4.10;3.50;;;;;;;32.34;16.01;94796.84;5071234;28;20367;-51
2021/10/14 06:56:43;;;;;;;3.97;3.65;;;;;;;32.46;16.18;94800.88;5056127;28;20045;-50
2021/10/14 06:59:10;;;;;;;4.40;4.00;;;;;;;32.30;16.21;94800.81;5055265;28;20068;-51
2021/10/14 07:01:37;;;;;;;4.20;3.83;;;;;;;32.34;16.37;94802.28;5055709;28;20048;-50
2021/10/14 07:04:05;;;;;;;4.22;3.83;;;;;;;32.31;15.95;94813.91;5055922;28;20078;-52
2021/10/14 07:06:32;;;;;;;4.50;3.83;;;;;;;32.36;15.78;94815.38;5055638;28;20436;-53
2021/10/14 07:08:59;;;;;;;4.15;3.75;;;;;;;32.12;16.33;94812.69;5055935;28;20389;-50
2021/10/14 07:11:32;;;;;;;3.67;3.38;;;;;;;32.08;16.32;94809.28;5054273;28;20056;-51
2021/10/14 07:13:59;;;;;;;4.00;3.38;;;;;;;32.17;16.07;94811.44;5054437;28;20045;-51
2021/10/14 07:16:27;;;;;;;3.70;3.20;;;;;;;32.00;16.04;94817.91;5055758;28;20372;-51
2021/10/14 07:18:54;;;;;;;4.40;3.15;;;;;;;31.96;16.01;94823.38;5055633;28;20060;-51
2021/10/14 07:21:22;;;;;;;3.40;3.10;;;;;;;31.90;16.30;94817.69;5055322;28;20448;-52
2021/10/14 07:23:49;;;;;;;3.08;2.78;;;;;;;31.73;16.33;94824.16;5066885;28;20055;-53
2021/10/14 07:26:16;;;;;;;3.72;2.88;;;;;;;32.18;16.33;94810.25;5075615;28;20383;-51
2021/10/14 07:28:43;;;;;;;2.60;2.40;;;;;;;32.18;15.88;94805.63;5074919;28;20044;-52
2021/10/14 07:31:10;;;;;;;4.55;3.10;;;;;;;31.92;15.90;94816.50;5075619;28;20101;-50
2021/10/14 07:33:37;;;;;;;2.92;2.67;;;;;;;32.05;16.29;94806.66;5063513;28;20049;-52
2021/10/14 07:36:06;;;;;;;5.15;2.92;;;;;;;31.68;16.33;94821.13;5054687;28;20055;-58
2021/10/14 07:38:34;;;;;;;3.22;2.92;;;;;;;31.94;16.31;94812.22;5055293;28;20055;-51
2021/10/14 07:41:01;;;;;;;3.90;2.80;;;;;;;32.06;16.18;94814.34;5055355;28;20063;-52
2021/10/14 07:43:28;;;;;;;4.18;3.10;;;;;;;31.81;16.01;94814.78;5055104;28;20049;-53
2021/10/14 07:45:55;;;;;;;5.25;2.92;;;;;;;31.94;16.10;94811.47;5054501;28;20052;-51
2021/10/14 07:48:22;;;;;;;3.10;2.80;;;;;;;31.87;16.21;94818.53;5055235;28;20048;-51
2021/10/14 07:50:49;;;;;;;3.00;2.67;;;;;;;32.02;15.71;94819.06;5055307;28;20052;-51
2021/10/14 07:53:17;;;;;;;3.17;2.58;;;;;;;32.25;15.57;94810.13;5060842;28;20040;-51
2021/10/14 07:55:45;;;;;;;3.00;2.53;;;;;;;31.99;16.08;94824.50;5075058;28;20056;-51
2021/10/14 07:58:13;;;;;;;2.65;2.30;;;;;;;32.11;15.77;94823.91;5074841;28;20052;-52
2021/10/14 08:00:40;;;;;;;3.22;2.50;;;;;;;32.11;15.49;94821.22;5075008;28;20044;-56
2021/10/14 08:03:08;;;;;;;23.88;21.63;;;;;;;32.09;15.92;94818.91;5074978;28;20045;-50
2021/10/14 08:05:35;;;;;;;5.53;5.03;;;;;;;32.19;15.71;94823.38;5075422;28;20486;-51
2021/10/14 08:08:02;;;;;;;3.50;3.15;;;;;;;31.88;15.60;94825.47;5075129;28;20041;-53
2021/10/14 08:10:29;;;;;;;6.25;2.60;;;;;;;31.80;15.81;94818.66;5074652;28;20064;-50
2021/10/14 08:12:56;;;;;;;2.60;2.28;;;;;;;31.69;15.67;94807.19;5069534;28;20052;-53
2021/10/14 08:15:24;;;;;;;2.50;2.28;;;;;;;31.56;15.67;94815.13;5054659;28;20742;-52
2021/10/14 08:17:51;;;;;;;2.70;2.10;;;;;;;31.03;16.13;94821.28;5053880;28;20045;-53
2021/10/14 08:20:18;;;;;;;2.20;1.75;;;;;;;31.31;15.89;94824.78;5054904;28;20440;-53
2021/10/14 08:22:46;;;;;;;2.42;2.03;;;;;;;30.68;15.90;94817.09;5057311;28;20048;-55
2021/10/14 08:25:15;;;;;;;2.38;2.03;;;;;;;31.14;15.81;94821.91;5074124;28;20044;-52
2021/10/14 08:27:43;;;;;;;2.00;1.70;;;;;;;31.47;15.89;94817.59;5073992;28;20067;-53
2021/10/14 08:30:13;;;;;;;2.03;1.80;;;;;;;31.49;15.99;94815.25;5074030;28;20059;-52
2021/10/14 08:32:42;;;;;;;2.08;1.88;;;;;;;31.66;15.61;94821.53;5071790;28;20054;-53
2021/10/14 08:35:10;;;;;;;2.35;1.90;;;;;;;31.80;15.35;94813.25;5054212;28;20048;-50
2021/10/14 08:37:38;;;;;;;3.53;1.90;;;;;;;31.97;15.28;94811.41;5053949;28;20075;-50
2021/10/14 08:40:05;;;;;;;2.88;2.58;;;;;;;30.92;15.66;94804.47;5053499;28;20076;-51
2021/10/14 08:42:32;;;;;;;3.55;2.67;;;;;;;30.72;15.93;94801.66;5053545;28;20044;-51
2021/10/14 08:45:03;;;;;;;3.40;2.90;;;;;;;30.03;16.40;94795.44;5053898;28;20045;-50
2021/10/14 08:47:30;;;;;;;3.85;3.15;;;;;;;29.29;17.03;94794.09;5065440;28;20040;-54
2021/10/14 08:49:58;;;;;;;3.25;2.95;;;;;;;28.95;17.48;94798.53;5073842;28;20375;-51
2021/10/14 08:52:26;;;;;;;3.17;2.88;;;;;;;28.61;17.40;94799.03;5073292;28;20465;-51
2021/10/14 08:54:53;;;;;;;3.10;2.63;;;;;;;28.69;17.41;94797.88;5053783;28;20056;-50
2021/10/14 08:57:20;;;;;;;2.40;2.20;;;;;;;28.35;17.32;94805.66;5053587;28;20041;-55
2021/10/14 08:59:47;;;;;;;2.58;2.10;;;;;;;28.09;17.93;94804.19;5053784;28;20436;-55
2021/10/14 09:02:17;;;;;;;2.55;2.00;;;;;;;28.01;18.09;94799.97;5052420;28;20052;-54
2021/10/14 09:04:53;;;;;;;2.47;2.10;;;;;;;28.12;17.91;94808.03;5053564;28;20367;-60
2021/10/14 09:07:21;;;;;;;2.33;2.13;;;;;;;27.90;18.19;94804.63;5053722;28;20443;-66
2021/10/14 09:09:49;;;;;;;3.80;2.80;;;;;;;27.97;18.09;94804.59;5053518;28;20462;-56
2021/10/14 09:12:18;;;;;;;3.55;2.70;;;;;;;27.90;17.77;94801.94;5053597;28;20056;-62
2021/10/14 09:14:57;;;;;;;3.10;2.78;;;;;;;28.00;18.10;94808.44;5053372;28;20057;-53
2021/10/14 09:17:37;;;;;;;2.90;2.60;;;;;;;27.89;17.85;94806.53;5053506;28;20060;-56
2021/10/14 09:20:24;;;;;;;2.90;2.60;;;;;;;27.66;18.16;94797.34;5053564;28;20056;-59
2021/10/14 09:23:02;;;;;;;3.20;2.90;;;;;;;27.66;18.16;94797.34;5052241;28;20064;-58
2021/10/14 09:25:36;;;;;;;3.50;2.83;;;;;;;27.91;18.37;94795.41;5053478;28;20392;-62
2021/10/14 09:28:15;;;;;;;4.10;3.47;;;;;;;27.64;18.12;94790.44;5052775;28;20059;-55
2021/10/14 09:31:17;;;;;;;3.65;3.22;;;;;;;27.44;17.92;94807.28;5057499;28;20068;-58
2021/10/14 09:33:46;;;;;;;3.00;2.70;;;;;;;27.52;17.61;94809.56;4973937;28;20467;-55
2021/10/14 09:36:16;;;;;;;5.85;3.05;;;;;;;27.50;18.08;94801.16;5046406;28;20479;-60
2021/10/14 09:38:50;;;;;;;4.30;2.80;;;;;;;27.50;17.93;94806.50;5057133;28;20562;-59
2021/10/14 09:41:20;;;;;;;4.22;2.25;;;;;;;27.41;18.07;94803.44;5056774;28;20052;-62
2021/10/14 09:43:49;;;;;;;3.75;2.60;;;;;;;27.44;18.28;94802.69;5065989;28;20052;-55
2021/10/14 09:46:39;;;;;;;2.60;2.08;;;;;;;27.56;18.01;94799.59;5077364;28;20055;-59
2021/10/14 09:49:12;;;;;;;3.92;2.22;;;;;;;27.57;17.73;94803.06;5077068;28;20475;-55
2021/10/14 09:51:40;;;;;;;2.33;1.92;;;;;;;27.53;18.07;94796.91;5076341;28;20049;-58
2021/10/14 09:54:07;;;;;;;3.80;2.92;;;;;;;27.46;18.10;94792.31;5076061;28;20059;-54
2021/10/14 09:56:34;;;;;;;3.33;2.75;;;;;;;27.55;17.86;94798.06;5077287;28;20052;-55
2021/10/14 09:59:02;;;;;;;3.20;2.80;;;;;;;27.39;18.25;94796.94;5077237;28;20048;-60
2021/10/14 10:01:34;;;;;;;4.28;3.67;;;;;;;27.48;17.88;94798.06;5077012;28;20048;-62
2021/10/14 10:04:03;;;;;;;5.72;3.70;;;;;;;27.36;17.83;94798.47;5065275;28;20049;-55
2021/10/14 10:06:34;;;;;;;3.80;3.40;;;;;;;27.44;17.87;94805.38;5056938;28;20356;-55
2021/10/14 10:09:24;;;;;;;3.15;2.85;;;;;;;27.20;17.99;94806.09;5056243;28;20044;-63
2021/10/14 10:11:55;;;;;;;4.13;3.40;;;;;;;27.02;18.23;94800.69;5056575;28;20371;-54
2021/10/14 10:14:25;;;;;;;5.90;5.28;;;;;;;27.13;18.00;94806.09;5056268;28;20056;-59
2021/10/14 10:16:57;;;;;;;6.40;5.22;;;;;;;27.19;18.07;94796.53;5039011;28;20470;-59
2021/10/14 10:19:40;;;;;;;5.15;4.65;;;;;;;27.04;18.26;94804.53;5056193;28;20060;-59
2021/10/14 10:22:08;;;;;;;6.03;4.85;;;;;;;27.15;17.79;94793.84;5056385;28;20060;-65
2021/10/14 10:24:36;;;;;;;5.07;4.57;;;;;;;27.15;17.94;94796.53;5059783;28;20379;-55
2021/10/14 10:27:05;;;;;;;4.70;4.18;;;;;;;27.16;17.87;94786.56;5055715;28;20049;-56
2021/10/14 10:29:40;;;;;;;4.55;4.07;;;;;;;27.11;18.37;94795.00;5056471;28;20056;-57
2021/10/14 10:32:11;;;;;;;4.18;3.55;;;;;;;27.32;18.19;94773.53;5056269;28;20052;-62
2021/10/14 10:37:18;;;;;;;3.22;2.58;;;;;;;27.03;18.25;94781.53;5055706;28;20045;-54
2021/10/14 10:39:48;;;;;;;2.92;2.45;;;;;;;27.27;18.16;94766.63;5056039;28;20049;-53
2021/10/14 10:42:22;;;;;;;2.58;2.08;;;;;;;26.90;18.77;94769.63;5055013;28;20049;-55
2021/10/14 10:44:50;;;;;;;2.55;2.10;;;;;;;26.89;18.37;94762.72;5071954;28;20052;-53
2021/10/14 10:47:41;;;;;;;2.50;1.92;;;;;;;27.09;18.21;94759.72;5075908;28;20052;-53
2021/10/14 10:50:36;;;;;;;2.33;2.00;;;;;;;27.06;18.28;94768.50;5076181;28;20049;-55
2021/10/14 10:53:08;;;;;;;2.67;2.00;;;;;;;27.24;18.06;94761.25;5069914;28;20056;-55
2021/10/14 10:55:44;;;;;;;4.47;2.05;;;;;;;26.91;18.45;94768.47;5054997;28;20051;-53
2021/10/14 10:58:14;;;;;;;2.50;2.08;;;;;;;27.17;17.76;94772.00;5055901;28;20460;-54
2021/10/14 11:00:44;;;;;;;3.15;2.22;;;;;;;27.06;18.18;94771.19;5038264;28;20053;-58
2021/10/14 11:03:22;;;;;;;2.28;1.80;;;;;;;27.17;17.96;94761.25;5057295;28;20052;-54
2021/10/14 11:05:49;;;;;;;2.00;1.80;;;;;;;26.95;17.70;94763.13;5075005;28;20041;-53
2021/10/14 11:08:21;;;;;;;2.03;1.80;;;;;;;26.95;18.14;94774.59;5075812;28;20051;-53
2021/10/14 11:10:55;;;;;;;2.05;1.80;;;;;;;26.88;18.19;94766.56;5074840;28;20071;-55
2021/10/14 11:13:24;;;;;;;2.08;1.48;;;;;;;27.03;18.05;94759.31;5074227;28;20067;-55
2021/10/14 11:15:57;;;;;;;2.00;1.50;;;;;;;26.80;18.44;94761.53;5074888;28;20051;-57
2021/10/14 11:18:26;;;;;;;2.20;1.63;;;;;;;26.83;18.17;94750.84;5071112;28;20053;-52
2021/10/14 11:21:00;;;;;;;2.50;1.70;;;;;;;26.95;18.25;94750.47;5055403;28;20052;-54
2021/10/14 11:23:29;;;;;;;3.25;1.70;;;;;;;26.55;18.72;94750.78;5063736;28;20683;-54
2021/10/14 11:26:13;;;;;;;2.13;1.50;;;;;;;26.83;18.09;94753.53;5075313;28;20044;-55
2021/10/14 11:29:02;;;;;;;2.35;1.60;;;;;;;26.83;18.32;94747.41;5069857;28;20049;-63
2021/10/14 11:31:35;;;;;;;2.65;2.22;;;;;;;26.93;18.42;94743.94;5055066;28;20052;-56
2021/10/14 11:34:07;;;;;;;2.60;1.58;;;;;;;27.01;18.16;94738.22;5055410;28;20566;-59
2021/10/14 11:36:35;;;;;;;2.78;2.00;;;;;;;26.70;18.82;94749.66;5055393;28;20052;-55
2021/10/14 11:39:10;;;;;;;2.33;1.77;;;;;;;27.05;18.06;94738.22;5055324;28;20049;-53
2021/10/14 11:41:39;;;;;;;2.03;1.70;;;;;;;26.94;18.47;94738.19;5054993;28;20060;-54